Terminal Aerodrome Forecast
Issued by NWS

Home | Current Version | Previous Version | Text Only | Print | Product List | Glossary On
Versions: 1 2 3 4 5 6 7 8 9 10 11 12 13
000
FTUS42 TJSJ 021751
TAFIST
TAF
TIST 021751Z 0218/0318 14012KT P6SM VCSH SCT025 SCT050
     FM022300 10007KT P6SM FEW040
     FM031300 12009KT P6SM FEW030 FEW050=

USA.gov is the U.S. government's official web portal to all federal, state and local government web resources and services.